Time;durP1;ratioP1;P1;durP2;ratioP2;P2;SDS_P1;SDS_P2;PMS_P1;PMS_P2;Temp;Humidity;BMP_temperature;BMP_pressure;BME280_temperature;BME280_humidity;BME280_pressure;Samples;Min_cycle;Max_cycle;Signal;HPM_P1;HPM_P2
2023/10/26 00:02:00;;;;;;;15.63;10.67;;;;;;;10.35;97.98;98899.75;5017933;28;20205;-70
2023/10/26 00:04:28;;;;;;;12.57;8.97;;;;;;;10.35;98.49;98896.38;5019016;28;20229;-70
2023/10/26 00:06:55;;;;;;;17.27;12.67;;;;;;;10.35;98.21;98894.47;5016776;28;20780;-70
2023/10/26 00:09:21;;;;;;;12.33;9.40;;;;;;;10.35;98.16;98896.38;5018276;28;20209;-71
2023/10/26 00:11:49;;;;;;;12.07;9.60;;;;;;;10.34;98.82;98897.47;5016170;28;20208;-72
2023/10/26 00:14:15;;;;;;;11.47;9.23;;;;;;;10.32;97.97;98892.59;5016661;28;20228;-71
2023/10/26 00:16:41;;;;;;;11.70;9.03;;;;;;;10.32;98.32;98889.94;5019290;28;20565;-69
2023/10/26 00:19:08;;;;;;;12.90;9.77;;;;;;;10.34;98.10;98889.56;5017853;28;20200;-71
2023/10/26 00:21:35;;;;;;;12.47;9.17;;;;;;;10.33;98.35;98882.78;5013962;28;21782;-71
2023/10/26 00:24:02;;;;;;;12.10;8.97;;;;;;;10.32;98.17;98887.31;5021225;28;20233;-72
2023/10/26 00:26:28;;;;;;;14.47;9.40;;;;;;;10.31;98.42;98877.84;5016108;28;20222;-71
2023/10/26 00:28:55;;;;;;;13.53;9.47;;;;;;;10.33;97.88;98880.13;5018692;28;20436;-71
2023/10/26 00:31:21;;;;;;;11.13;9.53;;;;;;;10.32;98.51;98875.97;4998515;28;20245;-70
2023/10/26 00:33:47;;;;;;;13.23;10.37;;;;;;;10.33;98.53;98883.53;5016361;28;20236;-71
2023/10/26 00:36:14;;;;;;;14.00;9.47;;;;;;;10.32;98.98;98881.25;5016531;28;20219;-71
2023/10/26 00:38:42;;;;;;;13.83;8.90;;;;;;;10.32;97.96;98875.97;5000481;28;20618;-71
2023/10/26 00:41:08;;;;;;;13.23;9.43;;;;;;;10.32;98.78;98874.13;5016877;28;20212;-70
2023/10/26 00:43:34;;;;;;;11.93;9.63;;;;;;;10.32;98.17;98868.84;5018588;28;20636;-71
2023/10/26 00:46:01;;;;;;;11.10;8.60;;;;;;;10.33;98.69;98864.31;5015236;28;20225;-71
2023/10/26 00:48:27;;;;;;;11.33;9.13;;;;;;;10.32;98.33;98862.78;5000155;28;20720;-71
2023/10/26 00:50:54;;;;;;;11.33;9.23;;;;;;;10.32;98.71;98857.50;5001445;28;20201;-71
2023/10/26 00:53:21;;;;;;;10.77;8.90;;;;;;;10.32;98.83;98857.50;4997524;28;20223;-70
2023/10/26 00:55:52;;;;;;;11.37;8.50;;;;;;;10.32;97.94;98850.38;5015925;28;20602;-70
2023/10/26 00:58:19;;;;;;;12.83;9.53;;;;;;;10.32;99.27;98850.38;5015613;28;20197;-71
2023/10/26 01:00:45;;;;;;;12.50;9.77;;;;;;;10.32;98.82;98845.09;4999771;28;20215;-72
2023/10/26 01:03:13;;;;;;;11.30;10.03;;;;;;;10.31;98.59;98840.91;5016433;28;20215;-71
2023/10/26 01:05:39;;;;;;;11.33;9.53;;;;;;;10.32;98.58;98833.78;5016008;28;20479;-72
2023/10/26 01:08:06;;;;;;;16.67;10.03;;;;;;;10.32;98.58;98833.78;4999521;28;20439;-72
2023/10/26 01:10:32;;;;;;;15.43;11.00;;;;;;;10.31;98.43;98829.63;4996556;28;20211;-71
2023/10/26 01:13:01;;;;;;;15.40;11.20;;;;;;;10.31;98.82;98833.00;5017887;28;20204;-71
2023/10/26 01:15:27;;;;;;;12.93;9.60;;;;;;;10.31;98.94;98825.09;5001468;28;21766;-71
2023/10/26 01:17:53;;;;;;;13.23;9.50;;;;;;;10.32;98.35;98824.00;5001051;28;20702;-71
2023/10/26 01:20:20;;;;;;;11.90;9.53;;;;;;;10.33;98.75;98822.88;4999163;28;20200;-71
2023/10/26 01:22:47;;;;;;;13.00;8.83;;;;;;;10.33;99.12;98817.59;5000878;28;20299;-71
2023/10/26 01:25:14;;;;;;;11.20;8.73;;;;;;;10.34;98.69;98815.69;4999168;28;20223;-71
2023/10/26 01:27:40;;;;;;;11.70;8.33;;;;;;;10.35;98.80;98804.78;5017577;28;20224;-71
2023/10/26 01:30:08;;;;;;;11.57;9.37;;;;;;;10.35;98.36;98815.34;5000502;28;20214;-71
2023/10/26 01:32:34;;;;;;;13.50;8.83;;;;;;;10.35;98.50;98807.41;5011753;28;20204;-71
2023/10/26 01:35:00;;;;;;;11.47;9.27;;;;;;;10.36;99.23;98808.94;4996863;28;20633;-71
2023/10/26 01:37:27;;;;;;;12.23;9.83;;;;;;;10.36;98.54;98798.38;5000687;28;20209;-69
2023/10/26 01:39:54;;;;;;;10.63;8.80;;;;;;;10.36;98.77;98792.34;4998475;28;20212;-69
2023/10/26 01:42:21;;;;;;;14.97;9.90;;;;;;;10.38;99.77;98800.66;5000459;28;20205;-71
2023/10/26 01:44:47;;;;;;;13.47;9.73;;;;;;;10.36;98.81;98790.47;5000483;28;20239;-71
2023/10/26 01:47:13;;;;;;;10.67;8.60;;;;;;;10.38;99.35;98795.38;4999766;28;20238;-71
2023/10/26 01:49:40;;;;;;;12.03;9.37;;;;;;;10.37;98.65;98797.28;4999212;28;20212;-71
2023/10/26 01:52:07;;;;;;;10.43;9.20;;;;;;;10.39;98.88;98795.00;4999864;28;20225;-70
2023/10/26 01:54:33;;;;;;;11.73;9.57;;;;;;;10.39;98.71;98784.47;5014032;28;20229;-71
2023/10/26 01:57:02;;;;;;;13.87;9.17;;;;;;;10.40;99.14;98777.31;4999742;28;20200;-71
2023/10/26 01:59:29;;;;;;;14.07;9.30;;;;;;;10.40;98.36;98780.69;5009739;28;20240;-69
2023/10/26 02:01:55;;;;;;;10.77;9.03;;;;;;;10.41;98.88;98782.19;5016223;28;20223;-69
2023/10/26 02:04:22;;;;;;;10.63;8.73;;;;;;;10.41;99.02;98770.91;5011790;28;20712;-71
2023/10/26 02:06:48;;;;;;;12.33;9.50;;;;;;;10.40;98.72;98770.13;5018611;28;20224;-72
2023/10/26 02:09:15;;;;;;;11.37;8.97;;;;;;;10.41;98.30;98763.72;5000400;28;20216;-71
2023/10/26 02:11:41;;;;;;;12.90;8.73;;;;;;;10.42;99.28;98765.25;4999214;28;20208;-69
2023/10/26 02:14:09;;;;;;;12.63;10.10;;;;;;;10.42;98.73;98760.00;5012016;28;20227;-71
2023/10/26 02:16:35;;;;;;;13.13;9.70;;;;;;;10.43;98.34;98755.44;5009956;28;20669;-70
2023/10/26 02:19:01;;;;;;;11.10;9.60;;;;;;;10.44;98.58;98749.81;5014699;28;20204;-71
2023/10/26 02:21:28;;;;;;;12.33;9.43;;;;;;;10.45;99.22;98750.59;5001806;28;20208;-71
2023/10/26 02:23:54;;;;;;;12.27;9.53;;;;;;;10.45;98.72;98756.59;5002775;28;20931;-70
2023/10/26 02:26:20;;;;;;;10.87;9.13;;;;;;;10.47;99.21;98750.97;5016499;28;20216;-71
2023/10/26 02:28:47;;;;;;;13.10;9.53;;;;;;;10.47;98.65;98757.00;5018484;28;20224;-70
2023/10/26 02:31:15;;;;;;;12.50;9.13;;;;;;;10.48;98.18;98749.81;5000886;28;20421;-70
2023/10/26 02:33:41;;;;;;;11.40;9.50;;;;;;;10.49;98.84;98748.69;5018587;28;20237;-71
2023/10/26 02:36:08;;;;;;;12.43;9.10;;;;;;;10.49;98.79;98754.75;5002794;28;20218;-71
2023/10/26 02:38:36;;;;;;;12.47;9.47;;;;;;;10.50;98.61;98747.59;5002838;28;20209;-71
2023/10/26 02:41:03;;;;;;;12.30;9.40;;;;;;;10.50;98.74;98750.97;5004929;28;20483;-71
2023/10/26 02:43:30;;;;;;;11.40;9.17;;;;;;;10.52;98.55;98745.34;4998340;28;20235;-70
2023/10/26 02:46:01;;;;;;;13.33;9.20;;;;;;;10.52;99.48;98746.09;5003395;28;20198;-70
2023/10/26 02:48:28;;;;;;;10.83;9.30;;;;;;;10.52;98.87;98743.47;5019095;28;20212;-71
2023/10/26 02:50:55;;;;;;;14.13;10.83;;;;;;;10.53;98.71;98742.34;5016009;28;20217;-71
2023/10/26 02:53:21;;;;;;;12.77;10.33;;;;;;;10.54;98.86;98740.44;5018238;28;20221;-71
2023/10/26 02:55:47;;;;;;;10.33;8.90;;;;;;;10.56;98.87;98740.84;5003211;28;20575;-71
2023/10/26 02:58:13;;;;;;;12.03;9.70;;;;;;;10.55;99.41;98737.44;5017711;28;20219;-71
2023/10/26 03:00:40;;;;;;;12.30;9.30;;;;;;;10.57;99.14;98735.16;5000624;28;20237;-71
2023/10/26 03:03:07;;;;;;;12.43;9.53;;;;;;;10.58;99.27;98735.94;5019161;28;20209;-72
2023/10/26 03:05:38;;;;;;;12.27;9.73;;;;;;;10.58;99.09;98736.72;5002787;28;20382;-71
2023/10/26 03:08:04;;;;;;;13.00;9.80;;;;;;;10.59;99.02;98730.31;5003525;28;20222;-71
2023/10/26 03:10:31;;;;;;;12.73;9.33;;;;;;;10.60;99.18;98723.88;4998854;28;20200;-71
2023/10/26 03:12:57;;;;;;;11.47;9.00;;;;;;;10.61;98.80;98724.66;5001866;28;20210;-71
2023/10/26 03:15:24;;;;;;;13.87;8.97;;;;;;;10.62;99.63;98724.25;5016215;28;20213;-70
2023/10/26 03:17:50;;;;;;;12.83;9.60;;;;;;;10.63;99.48;98722.41;5021500;28;20781;-71
2023/10/26 03:20:17;;;;;;;11.10;9.37;;;;;;;10.64;99.20;98724.66;5019654;28;20229;-71
2023/10/26 03:22:45;;;;;;;16.60;9.40;;;;;;;10.65;99.43;98725.41;5018231;28;20190;-72
2023/10/26 03:25:13;;;;;;;9.23;8.23;;;;;;;10.67;99.34;98720.53;4997564;28;20236;-71
2023/10/26 03:27:40;;;;;;;12.10;8.50;;;;;;;10.70;99.07;98722.41;5002457;28;20291;-71
2023/10/26 03:30:09;;;;;;;11.10;8.33;;;;;;;10.70;99.83;98723.19;5015019;28;20198;-69
2023/10/26 03:32:36;;;;;;;13.33;9.40;;;;;;;10.71;99.89;98722.06;5015049;28;20871;-70
2023/10/26 03:35:04;;;;;;;13.00;8.50;;;;;;;10.73;99.46;98724.31;5017352;28;20238;-71
2023/10/26 03:37:30;;;;;;;13.57;8.60;;;;;;;10.76;99.39;98726.97;5012376;28;20218;-71
2023/10/26 03:39:58;;;;;;;11.43;9.07;;;;;;;10.75;99.63;98725.47;5017734;28;20677;-72
2023/10/26 03:42:24;;;;;;;12.50;8.77;;;;;;;10.78;99.02;98723.97;5014467;28;20229;-71
2023/10/26 03:44:51;;;;;;;12.87;9.20;;;;;;;10.79;99.14;98725.47;5004860;28;20657;-71
2023/10/26 03:47:18;;;;;;;11.27;8.83;;;;;;;10.80;99.06;98721.72;5002050;28;20226;-71
2023/10/26 03:49:46;;;;;;;13.50;9.10;;;;;;;10.81;98.95;98718.69;5015527;28;20214;-71
2023/10/26 03:52:14;;;;;;;10.43;8.50;;;;;;;10.82;99.93;98722.84;5014575;28;20241;-71
2023/10/26 03:54:40;;;;;;;12.17;9.60;;;;;;;10.84;99.93;98720.63;5016837;28;21558;-69
2023/10/26 03:57:09;;;;;;;12.53;8.70;;;;;;;10.85;99.98;98710.78;4996436;28;20214;-71
2023/10/26 03:59:35;;;;;;;12.23;9.43;;;;;;;10.87;99.88;98719.13;4994790;28;20300;-71
2023/10/26 04:02:01;;;;;;;10.53;8.03;;;;;;;10.88;99.89;98716.09;4997504;28;20210;-70
2023/10/26 04:04:28;;;;;;;9.20;7.80;;;;;;;10.89;99.50;98711.56;5015350;28;20246;-71
2023/10/26 04:06:55;;;;;;;8.90;7.37;;;;;;;10.92;99.81;98716.13;5018259;28;20230;-71
2023/10/26 04:09:21;;;;;;;12.87;8.30;;;;;;;10.93;99.73;98704.41;5012116;28;20578;-69
2023/10/26 04:11:47;;;;;;;10.60;8.37;;;;;;;10.95;99.86;98704.78;5012674;28;20214;-70
2023/10/26 04:14:15;;;;;;;10.60;8.20;;;;;;;10.96;99.52;98701.03;5014305;28;20678;-71
2023/10/26 04:16:41;;;;;;;12.23;8.30;;;;;;;10.98;100.00;98709.34;5014321;28;22913;-71
2023/10/26 04:19:08;;;;;;;10.97;8.70;;;;;;;10.99;100.00;98703.69;5016564;28;20210;-69
2023/10/26 04:21:34;;;;;;;10.17;8.27;;;;;;;11.02;100.00;98702.94;5016251;28;20218;-71
2023/10/26 04:24:01;;;;;;;9.57;8.27;;;;;;;11.05;100.00;98699.56;5017778;28;20229;-71
2023/10/26 04:26:27;;;;;;;8.23;7.20;;;;;;;11.07;100.00;98702.56;5013374;28;20214;-71
2023/10/26 04:28:53;;;;;;;10.53;7.73;;;;;;;11.09;100.00;98702.97;5014000;28;20209;-71
2023/10/26 04:31:21;;;;;;;9.60;6.83;;;;;;;11.11;100.00;98692.78;5015646;28;20684;-72
2023/10/26 04:33:48;;;;;;;9.80;7.67;;;;;;;11.13;100.00;98687.88;5016427;28;20226;-72
2023/10/26 04:36:14;;;;;;;9.60;7.63;;;;;;;11.16;100.00;98695.06;5021208;28;20215;-70
2023/10/26 04:38:40;;;;;;;10.07;7.13;;;;;;;11.17;100.00;98687.88;5014650;28;20597;-70
2023/10/26 04:41:07;;;;;;;11.47;7.50;;;;;;;11.19;100.00;98689.00;5016531;28;20220;-69
2023/10/26 04:43:33;;;;;;;9.23;7.70;;;;;;;11.22;100.00;98690.91;5015511;28;20230;-71
2023/10/26 04:46:00;;;;;;;9.43;7.17;;;;;;;11.22;100.00;98683.00;5017492;28;20206;-71
2023/10/26 04:48:28;;;;;;;8.80;7.23;;;;;;;11.24;100.00;98688.63;5013055;28;20249;-71
2023/10/26 04:50:55;;;;;;;8.47;7.17;;;;;;;11.26;100.00;98688.28;5017226;28;20261;-71
2023/10/26 04:53:22;;;;;;;10.17;7.37;;;;;;;11.27;100.00;98692.41;5014997;28;20301;-70
2023/10/26 04:55:48;;;;;;;9.20;7.30;;;;;;;11.29;100.00;98695.47;5014236;28;20222;-71
2023/10/26 04:58:14;;;;;;;9.40;6.40;;;;;;;11.30;100.00;98689.03;5018382;28;20241;-71
2023/10/26 05:00:41;;;;;;;13.97;6.60;;;;;;;11.32;100.00;98689.41;5014502;28;20207;-71
2023/10/26 05:03:07;;;;;;;7.63;6.33;;;;;;;11.33;100.00;98696.22;5011617;28;20222;-70
2023/10/26 05:05:35;;;;;;;7.50;6.50;;;;;;;11.34;100.00;98687.16;5012508;28;20230;-71
2023/10/26 05:08:01;;;;;;;9.03;7.20;;;;;;;11.34;100.00;98695.84;5021813;28;20221;-71
2023/10/26 05:10:28;;;;;;;8.97;6.93;;;;;;;11.37;100.00;98699.63;5019603;28;20213;-69
2023/10/26 05:12:54;;;;;;;7.73;6.43;;;;;;;11.39;100.00;98700.00;5018570;28;20231;-71
2023/10/26 05:15:20;;;;;;;8.00;6.43;;;;;;;11.39;100.00;98695.47;5001497;28;20218;-71
2023/10/26 05:17:47;;;;;;;8.13;6.47;;;;;;;11.40;100.00;98690.94;5018002;28;20291;-71
2023/10/26 05:20:13;;;;;;;9.53;6.70;;;;;;;11.40;100.00;98686.44;5018805;28;20785;-71
2023/10/26 05:22:41;;;;;;;8.10;6.53;;;;;;;11.42;100.00;98691.31;5016645;28;20226;-70
2023/10/26 05:25:10;;;;;;;8.23;5.90;;;;;;;11.41;100.00;98690.56;5020860;28;20246;-71
2023/10/26 05:27:37;;;;;;;6.77;5.77;;;;;;;11.43;100.00;98690.22;5016403;28;20227;-71
2023/10/26 05:30:03;;;;;;;8.27;6.13;;;;;;;11.44;100.00;98697.00;5019028;28;20208;-71
2023/10/26 05:32:30;;;;;;;8.93;8.00;;;;;;;11.45;100.00;98698.50;5010007;28;20207;-70
2023/10/26 05:34:56;;;;;;;11.43;7.57;;;;;;;11.45;100.00;98695.88;5017729;28;20231;-71
2023/10/26 05:37:22;;;;;;;8.87;7.10;;;;;;;11.46;100.00;98692.84;5019772;28;20357;-71
2023/10/26 05:39:50;;;;;;;9.80;6.60;;;;;;;11.46;100.00;98698.13;5018690;28;20218;-71
2023/10/26 05:42:16;;;;;;;8.40;7.40;;;;;;;11.48;100.00;98698.50;5018326;28;20619;-71
2023/10/26 05:44:42;;;;;;;8.50;6.93;;;;;;;11.49;100.00;98699.28;5012608;28;20230;-70
2023/10/26 05:47:09;;;;;;;10.33;8.53;;;;;;;11.50;100.00;98696.22;5019628;28;20226;-71
2023/10/26 05:49:35;;;;;;;8.87;7.70;;;;;;;11.51;100.00;98697.00;5018355;28;20257;-71
2023/10/26 05:52:03;;;;;;;9.90;7.50;;;;;;;11.52;100.00;98703.78;5021175;28;20507;-71
2023/10/26 05:54:29;;;;;;;8.90;7.57;;;;;;;11.53;100.00;98700.00;5019258;28;20234;-71
2023/10/26 05:56:57;;;;;;;9.17;6.20;;;;;;;11.55;100.00;98701.16;5013517;28;20233;-71
2023/10/26 05:59:23;;;;;;;6.93;5.70;;;;;;;11.55;100.00;98709.06;5020428;28;20203;-72
2023/10/26 06:01:50;;;;;;;7.63;6.03;;;;;;;11.57;100.00;98706.81;5015798;28;20319;-70
2023/10/26 06:04:16;;;;;;;7.30;6.43;;;;;;;11.58;100.00;98707.56;5019253;28;20494;-71
2023/10/26 06:06:42;;;;;;;7.63;5.83;;;;;;;11.58;100.00;98720.78;5020539;28;20827;-70
2023/10/26 06:09:10;;;;;;;5.97;5.10;;;;;;;11.60;100.00;98713.28;5018235;28;20231;-71
2023/10/26 06:11:37;;;;;;;6.97;5.50;;;;;;;11.62;100.00;98718.94;5019480;28;20203;-71
2023/10/26 06:14:05;;;;;;;6.27;5.67;;;;;;;11.62;100.00;98719.69;5021836;28;20747;-71
2023/10/26 06:16:31;;;;;;;6.87;5.40;;;;;;;11.64;100.00;98725.34;5019177;28;20548;-72
2023/10/26 06:18:58;;;;;;;5.07;4.57;;;;;;;11.65;100.00;98715.56;5022357;28;20691;-72
2023/10/26 06:21:24;;;;;;;5.17;4.40;;;;;;;11.67;100.00;98718.56;5020130;28;20207;-71
2023/10/26 06:23:50;;;;;;;6.90;5.23;;;;;;;11.68;100.00;98728.00;5019224;28;20231;-71
2023/10/26 06:26:16;;;;;;;5.53;4.20;;;;;;;11.69;100.00;98718.97;5019191;28;20226;-70
2023/10/26 06:28:43;;;;;;;5.40;4.50;;;;;;;11.71;100.00;98725.38;5018230;28;20229;-71
2023/10/26 06:31:14;;;;;;;5.63;4.43;;;;;;;11.72;100.00;98726.88;5021184;28;20207;-71
2023/10/26 06:33:41;;;;;;;4.50;3.67;;;;;;;11.75;100.00;98725.38;5015833;28;20262;-71
2023/10/26 06:36:08;;;;;;;4.00;3.30;;;;;;;11.76;100.00;98722.34;5020278;28;20210;-72
2023/10/26 06:38:35;;;;;;;3.20;2.90;;;;;;;11.78;100.00;98728.03;5017342;28;20218;-71
2023/10/26 06:41:01;;;;;;;3.57;3.10;;;;;;;11.80;100.00;98732.94;5019356;28;20211;-70
2023/10/26 06:43:27;;;;;;;3.10;2.80;;;;;;;11.82;100.00;98723.50;5019709;28;20313;-69
2023/10/26 06:45:54;;;;;;;3.57;2.37;;;;;;;11.84;100.00;98728.38;5018035;28;20665;-72
2023/10/26 06:48:21;;;;;;;2.53;2.33;;;;;;;11.86;100.00;98728.78;5019365;28;20231;-71
2023/10/26 06:50:48;;;;;;;2.73;2.50;;;;;;;11.87;100.00;98727.63;5015468;28;20218;-71
2023/10/26 06:53:15;;;;;;;2.17;1.97;;;;;;;11.88;100.00;98729.16;5019597;28;20231;-71
2023/10/26 06:55:42;;;;;;;1.60;1.50;;;;;;;11.90;100.00;98732.94;5016478;28;20222;-70
2023/10/26 06:58:09;;;;;;;3.07;1.40;;;;;;;11.92;100.00;98733.31;5022505;28;20203;-71
2023/10/26 07:00:36;;;;;;;1.70;1.40;;;;;;;11.94;100.00;98731.03;5019033;28;20211;-71
2023/10/26 07:03:02;;;;;;;1.43;1.33;;;;;;;11.95;100.00;98729.91;5020026;28;20216;-71
2023/10/26 07:05:30;;;;;;;1.50;1.40;;;;;;;11.98;100.00;98728.38;5019822;28;20766;-71
2023/10/26 07:07:59;;;;;;;1.33;1.23;;;;;;;11.99;100.00;98745.75;5023701;28;20230;-71
2023/10/26 07:10:25;;;;;;;1.40;1.30;;;;;;;12.00;100.00;98736.72;5024957;28;20210;-72
2023/10/26 07:12:52;;;;;;;1.53;1.43;;;;;;;12.01;100.00;98738.22;5020841;28;20204;-70
2023/10/26 07:15:18;;;;;;;1.50;1.40;;;;;;;12.03;100.00;98744.66;5021590;28;20678;-71
2023/10/26 07:17:44;;;;;;;1.30;1.20;;;;;;;12.04;100.00;98742.75;5021744;28;20204;-70
2023/10/26 07:20:13;;;;;;;1.20;1.10;;;;;;;12.03;100.00;98747.28;5025489;28;20747;-71
2023/10/26 07:22:42;;;;;;;2.40;1.40;;;;;;;12.05;100.00;98750.31;5023454;28;20216;-70
2023/10/26 07:25:09;;;;;;;2.50;1.10;;;;;;;12.06;100.00;98741.22;5024735;28;20238;-71
2023/10/26 07:27:38;;;;;;;2.37;1.30;;;;;;;12.08;100.00;98749.56;5020938;28;20199;-71
2023/10/26 07:30:05;;;;;;;1.53;1.10;;;;;;;12.10;100.00;98734.06;5023082;28;20204;-69
2023/10/26 07:32:31;;;;;;;1.47;1.37;;;;;;;12.15;100.00;98740.84;5023133;28;20680;-71
2023/10/26 07:35:01;;;;;;;1.47;1.37;;;;;;;12.18;100.00;98742.75;5020836;28;20371;-71
2023/10/26 07:37:27;;;;;;;1.40;1.30;;;;;;;12.21;100.00;98745.38;5025800;28;20204;-71
2023/10/26 07:39:55;;;;;;;1.37;1.20;;;;;;;12.25;100.00;98754.06;5023481;28;20211;-69
2023/10/26 07:42:21;;;;;;;1.77;1.40;;;;;;;12.28;100.00;98755.22;5022240;28;20200;-71
2023/10/26 07:44:51;;;;;;;1.37;1.27;;;;;;;12.31;100.00;98754.47;5021692;28;20591;-71
2023/10/26 07:47:18;;;;;;;2.13;1.97;;;;;;;12.30;100.00;98763.50;5022911;28;20200;-70
2023/10/26 07:49:46;;;;;;;1.47;1.37;;;;;;;12.31;100.00;98760.50;5021519;28;20231;-70
2023/10/26 07:52:12;;;;;;;1.50;1.40;;;;;;;12.32;100.00;98766.56;5021198;28;20298;-71
2023/10/26 07:54:38;;;;;;;2.73;1.33;;;;;;;12.31;100.00;98767.69;5023498;28;20223;-71
2023/10/26 07:57:06;;;;;;;1.27;1.10;;;;;;;12.31;100.00;98773.72;5022245;28;20208;-69
2023/10/26 07:59:33;;;;;;;1.27;1.17;;;;;;;12.32;100.00;98774.50;5018907;28;20598;-67
2023/10/26 08:01:59;;;;;;;1.10;1.10;;;;;;;12.33;100.00;98781.28;5020681;28;20208;-69
2023/10/26 08:04:27;;;;;;;1.30;1.20;;;;;;;12.31;100.00;98776.38;5025542;28;20222;-70
2023/10/26 08:06:54;;;;;;;1.30;1.20;;;;;;;12.32;100.00;98780.53;5021022;28;20208;-70
2023/10/26 08:09:20;;;;;;;1.20;1.20;;;;;;;12.32;100.00;98783.16;5023342;28;20262;-70
2023/10/26 08:11:46;;;;;;;1.40;1.30;;;;;;;12.30;100.00;98788.09;5019616;28;20216;-70
2023/10/26 08:14:14;;;;;;;1.73;1.30;;;;;;;12.33;100.00;98786.59;5020059;28;20236;-70
2023/10/26 08:16:40;;;;;;;1.33;1.13;;;;;;;12.33;100.00;98781.28;5019661;28;20563;-70
2023/10/26 08:19:07;;;;;;;1.40;1.30;;;;;;;12.33;100.00;98782.06;5020940;28;20211;-71
2023/10/26 08:21:33;;;;;;;1.90;1.47;;;;;;;12.32;100.00;98785.09;5021305;28;20208;-71
2023/10/26 08:23:59;;;;;;;1.30;1.20;;;;;;;12.30;100.00;98796.03;5022437;28;20760;-71
2023/10/26 08:26:25;;;;;;;1.57;1.43;;;;;;;12.33;99.89;98797.94;5021850;28;20215;-71
2023/10/26 08:28:52;;;;;;;2.17;1.63;;;;;;;12.28;99.67;98797.56;5019289;28;20589;-72
2023/10/26 08:31:19;;;;;;;1.70;1.60;;;;;;;12.29;99.76;98797.19;5021362;28;20207;-71
2023/10/26 08:33:47;;;;;;;3.13;2.00;;;;;;;12.30;99.56;98797.91;5021607;28;20228;-72
2023/10/26 08:36:13;;;;;;;2.03;1.87;;;;;;;12.30;99.73;98798.69;5020667;28;20211;-69
2023/10/26 08:38:40;;;;;;;2.30;2.10;;;;;;;12.31;99.85;98807.41;5020632;28;20235;-71
2023/10/26 08:41:06;;;;;;;2.90;1.60;;;;;;;12.29;99.67;98802.47;5018187;28;20530;-69
2023/10/26 08:43:33;;;;;;;3.30;2.20;;;;;;;12.31;99.62;98808.13;5018646;28;20633;-71
2023/10/26 08:46:00;;;;;;;1.63;1.53;;;;;;;12.29;99.80;98813.06;5020729;28;20208;-70
2023/10/26 08:48:30;;;;;;;1.80;1.70;;;;;;;12.29;99.75;98815.72;5021311;28;20240;-71
2023/10/26 08:50:56;;;;;;;3.23;1.60;;;;;;;12.29;99.25;98820.22;5018433;28;20250;-71
2023/10/26 08:53:23;;;;;;;1.60;1.50;;;;;;;12.28;99.46;98819.50;5022249;28;20231;-70
2023/10/26 08:55:54;;;;;;;2.47;1.80;;;;;;;12.26;99.26;98811.16;5018411;28;21180;-71
2023/10/26 08:58:21;;;;;;;2.57;1.60;;;;;;;12.22;99.05;98817.59;5022765;28;20586;-72
2023/10/26 09:00:48;;;;;;;1.87;1.73;;;;;;;12.21;99.28;98819.47;5019034;28;20207;-71
2023/10/26 09:03:14;;;;;;;1.50;1.40;;;;;;;12.24;99.26;98820.59;5021025;28;20231;-70
2023/10/26 09:05:53;;;;;;;1.80;1.70;;;;;;;12.24;99.58;98821.38;5018420;28;20196;-71
2023/10/26 09:08:20;;;;;;;1.63;1.53;;;;;;;12.23;99.73;98827.03;5003336;28;20281;-72
2023/10/26 09:10:46;;;;;;;1.70;1.60;;;;;;;12.25;100.00;98817.59;5017529;28;20203;-72
2023/10/26 09:13:14;;;;;;;1.70;1.60;;;;;;;12.26;100.00;98821.75;5020645;28;20226;-71
2023/10/26 09:15:48;;;;;;;1.67;1.57;;;;;;;12.27;100.00;98828.53;5021070;28;20204;-72
2023/10/26 09:18:15;;;;;;;1.80;1.70;;;;;;;12.30;99.90;98829.69;5020532;28;20247;-71
2023/10/26 09:20:42;;;;;;;2.43;1.90;;;;;;;12.31;99.73;98839.16;5019788;28;20661;-71
2023/10/26 09:23:27;;;;;;;2.10;1.90;;;;;;;12.33;100.00;98837.63;5018550;28;20215;-71
2023/10/26 09:25:57;;;;;;;2.20;2.00;;;;;;;12.37;100.00;98840.28;5021044;28;20235;-69
2023/10/26 09:28:23;;;;;;;2.20;2.00;;;;;;;12.39;100.00;98836.13;5022043;28;20906;-71
2023/10/26 09:30:50;;;;;;;2.07;1.97;;;;;;;12.39;100.00;98838.78;5018432;28;20215;-72
2023/10/26 09:33:23;;;;;;;1.93;1.77;;;;;;;12.40;99.98;98842.91;5019276;28;20220;-70
2023/10/26 09:35:49;;;;;;;1.83;1.73;;;;;;;12.41;99.65;98835.72;5019397;28;20235;-71
2023/10/26 09:38:17;;;;;;;2.10;1.90;;;;;;;12.41;99.65;98847.06;5019017;28;20200;-72
2023/10/26 09:40:44;;;;;;;2.57;1.70;;;;;;;12.38;99.47;98842.53;5023575;28;20207;-71
2023/10/26 09:43:11;;;;;;;3.73;1.83;;;;;;;12.38;99.68;98847.09;5023366;28;20212;-69
2023/10/26 09:45:37;;;;;;;2.07;1.90;;;;;;;12.38;99.46;98855.75;5021968;28;20293;-70
2023/10/26 09:48:05;;;;;;;2.43;2.23;;;;;;;12.39;99.38;98859.94;5020960;28;20203;-71
2023/10/26 09:50:37;;;;;;;2.20;2.00;;;;;;;12.36;99.47;98859.91;5021021;28;20526;-70
2023/10/26 09:53:04;;;;;;;2.40;2.20;;;;;;;12.37;99.67;98861.47;5017590;28;20207;-71
2023/10/26 09:55:33;;;;;;;2.30;2.10;;;;;;;12.39;99.75;98854.66;5020558;28;20204;-71
2023/10/26 09:58:03;;;;;;;2.40;2.17;;;;;;;12.34;99.59;98855.03;5017437;28;20204;-70
2023/10/26 10:00:32;;;;;;;3.20;2.47;;;;;;;12.37;99.29;98864.84;5015446;28;20200;-71
2023/10/26 10:03:11;;;;;;;2.23;2.03;;;;;;;12.37;99.54;98867.50;5016627;28;20262;-71
2023/10/26 10:05:39;;;;;;;2.50;2.30;;;;;;;12.40;99.75;98858.81;5017518;28;20188;-71
2023/10/26 10:08:05;;;;;;;2.17;2.07;;;;;;;12.38;99.72;98866.34;5019498;28;20208;-70
2023/10/26 10:10:33;;;;;;;3.37;2.70;;;;;;;12.40;100.00;98872.03;5021388;28;20228;-71
2023/10/26 10:12:59;;;;;;;2.40;2.20;;;;;;;12.40;99.71;98865.97;5019405;28;20290;-71
2023/10/26 10:15:38;;;;;;;2.47;2.27;;;;;;;12.41;99.66;98865.59;5019570;28;20229;-71
2023/10/26 10:18:04;;;;;;;2.47;2.23;;;;;;;12.38;99.70;98866.34;5017264;28;20586;-71
2023/10/26 10:20:33;;;;;;;2.60;2.40;;;;;;;12.37;99.64;98872.03;5018058;28;20887;-71
2023/10/26 10:23:00;;;;;;;2.50;2.30;;;;;;;12.39;99.63;98872.41;5021227;28;20203;-70
2023/10/26 10:26:01;;;;;;;2.47;2.27;;;;;;;12.38;99.58;98874.28;5019425;28;20279;-72
2023/10/26 10:28:57;;;;;;;2.63;2.40;;;;;;;12.38;99.39;98876.94;5019560;28;20207;-71
2023/10/26 10:31:36;;;;;;;2.50;2.30;;;;;;;12.37;99.76;98874.69;5019791;28;20227;-70
2023/10/26 10:34:05;;;;;;;3.20;2.30;;;;;;;12.37;100.00;98874.69;5017502;28;20266;-70
2023/10/26 10:37:21;;;;;;;14.20;5.73;;;;;;;12.38;99.69;98870.91;5020199;28;20207;-70
2023/10/26 10:40:09;;;;;;;3.00;2.70;;;;;;;12.39;99.64;98872.41;4958548;28;20210;-71
2023/10/26 10:42:38;;;;;;;4.60;3.50;;;;;;;12.39;99.69;98870.53;5020591;28;20301;-70
2023/10/26 10:45:06;;;;;;;8.73;4.57;;;;;;;12.39;99.52;98878.47;5023409;28;20470;-69
2023/10/26 10:47:32;;;;;;;4.73;3.70;;;;;;;12.37;99.56;98879.97;5024093;28;20210;-70
2023/10/26 10:50:15;;;;;;;2.70;2.50;;;;;;;12.35;99.39;98874.28;5023829;28;20549;-70
2023/10/26 10:52:42;;;;;;;3.67;2.93;;;;;;;12.32;99.38;98877.72;5023650;28;20211;-69
2023/10/26 10:55:08;;;;;;;10.10;6.13;;;;;;;12.33;99.16;98873.94;5023139;28;20226;-69
2023/10/26 10:57:34;;;;;;;3.83;3.53;;;;;;;12.29;99.19;98883.75;5023942;28;20208;-70
2023/10/26 11:00:03;;;;;;;3.70;3.40;;;;;;;12.26;99.26;98874.66;5022571;28;20203;-70
2023/10/26 11:02:29;;;;;;;3.97;3.33;;;;;;;12.22;99.15;98873.91;5023253;28;20208;-69
2023/10/26 11:04:57;;;;;;;3.80;3.43;;;;;;;12.23;99.09;98885.25;5023723;28;20243;-70
2023/10/26 11:07:27;;;;;;;4.77;3.37;;;;;;;12.22;99.17;98871.25;5022091;28;20243;-71
2023/10/26 11:09:56;;;;;;;3.87;3.57;;;;;;;12.21;99.16;98877.69;5022598;28;20224;-70
2023/10/26 11:12:22;;;;;;;3.70;3.40;;;;;;;12.17;99.20;98878.81;5022913;28;20287;-70
2023/10/26 11:14:50;;;;;;;4.40;4.00;;;;;;;12.16;99.00;98882.63;5022576;28;20617;-71
2023/10/26 11:17:18;;;;;;;5.93;3.70;;;;;;;12.15;99.19;98883.72;5021032;28;20226;-68
2023/10/26 11:19:44;;;;;;;3.93;3.37;;;;;;;12.15;99.36;98891.66;5025117;28;20207;-70
2023/10/26 11:22:12;;;;;;;3.57;3.27;;;;;;;12.13;99.37;98884.13;5021282;28;20292;-69
2023/10/26 11:24:39;;;;;;;4.50;3.50;;;;;;;12.08;99.17;98894.31;5022561;28;20227;-70
2023/10/26 11:27:10;;;;;;;3.77;3.40;;;;;;;12.06;99.52;98892.03;5023856;28;20216;-70
2023/10/26 11:29:36;;;;;;;4.00;3.60;;;;;;;12.06;99.10;98894.66;5018339;28;20227;-69